Terminal Aerodrome Forecast
Issued by NWS

Home | Current Version | Previous Version | Graphics & Text | Print | Product List | Glossary On
Versions: 1 2 3 4 5 6 7 8 9 10 11 12 13 14
269
FTUS43 KOAX 242335
TAFCDR
TAF
KCDR 242335Z 2500/2524 30020G30KT P6SM BKN100
     FM250300 29018G25KT P6SM BKN050 BKN100
     FM251000 27017G24KT P6SM SCT120
     FM251500 31022G30KT P6SM SKC=

USA.gov is the U.S. government's official web portal to all federal, state and local government web resources and services.